^^
WestSenecaWeather Station Historical Data
 
Daily Summary for December 15, 2018 Units:  English    Metric   Both
Daily Weekly Monthly Yearly Custom
  Current: High: Low: Average:
Temperature: 39.3 °F 39.7 °F 35.9 °F 38 °F
Dew Point: 34.9 °F 36.6 °F 34.2 °F 35.5 °F
Humidity: 84% 96% 84% 91%
Wind Speed: 11mph 11.5mph 0mph 4.1mph
Wind Gust: 7.8mph 7.8mph - -
WindSSW - - SSW
Pressure: 30.17 in 30.24 in 30.14 in -
Precipitation: 0 in      
Historical Graphs
 
 
Tabular Data for December 15, 2018
Time Temperature Dew Point Pressure Wind Wind Speed Wind Gust Humidity Rainfall Rate (Hourly) solar
00:04 37.3 °F 34.4 °F 30.16 in Calm     89% 0 in WeatherDisplay:10.37 W/m2
00:09 37.3 °F 34.4 °F 30.16 in North 1.2 mph 0.7 mph 89% 0 in WeatherDisplay:10.37 W/m2
00:14 37.3 °F 34.4 °F 30.16 in Calm     89% 0 in WeatherDisplay:10.37 W/m2
00:19 37.3 °F 34.4 °F 30.16 in North 1.2 mph 0.9 mph 89% 0 in WeatherDisplay:10.37 W/m2
00:24 37.3 °F 34.4 °F 30.16 in Calm     89% 0 in WeatherDisplay:10.37 W/m2
00:29 37.3 °F 34.6 °F 30.15 in Calm     90% 0 in WeatherDisplay:10.37 W/m2
00:34 37.4 °F 34.7 °F 30.15 in Calm     90% 0 in WeatherDisplay:10.37 W/m2
00:39 37.6 °F 34.9 °F 30.15 in North 1.2 mph   90% 0 in WeatherDisplay:10.37 W/m2
00:44 37.8 °F 35.1 °F 30.15 in Calm     90% 0 in WeatherDisplay:10.37 W/m2
00:49 37.9 °F 35.2 °F 30.15 in Calm     90% 0 in WeatherDisplay:10.37 W/m2
00:54 38.1 °F 35.4 °F 30.15 in Calm     90% 0 in WeatherDisplay:10.37 W/m2
00:59 38.3 °F 35.6 °F 30.15 in Calm     90% 0 in WeatherDisplay:10.37 W/m2
01:04 38.5 °F 35.8 °F 30.15 in Calm     90% 0 in WeatherDisplay:10.37 W/m2
01:09 38.6 °F 35.9 °F 30.15 in Calm     90% 0 in WeatherDisplay:10.37 W/m2
01:14 38.6 °F 35.9 °F 30.15 in Calm     90% 0 in WeatherDisplay:10.37 W/m2
01:19 38.7 °F 36 °F 30.15 in Calm     90% 0 in WeatherDisplay:10.37 W/m2
01:24 38.7 °F 35.7 °F 30.15 in Calm     89% 0 in WeatherDisplay:10.37 W/m2
01:29 38.8 °F 36.1 °F 30.15 in Calm     90% 0 in WeatherDisplay:10.37 W/m2
01:34 38.8 °F 35.8 °F 30.15 in Calm     89% 0 in WeatherDisplay:10.37 W/m2
01:39 38.7 °F 35.7 °F 30.15 in Calm     89% 0 in WeatherDisplay:10.37 W/m2
01:44 38.7 °F 35.7 °F 30.15 in Calm     89% 0 in WeatherDisplay:10.37 W/m2
01:49 38.7 °F 35.7 °F 30.15 in Calm     89% 0 in WeatherDisplay:10.37 W/m2
01:54 38.8 °F 35.8 °F 30.15 in North 2.3 mph 1 mph 89% 0 in WeatherDisplay:10.37 W/m2
01:59 39 °F 36 °F 30.16 in Calm     89% 0 in WeatherDisplay:10.37 W/m2
02:04 39.2 °F 36.2 °F 30.16 in North 3.5 mph 1.6 mph 89% 0 in WeatherDisplay:10.37 W/m2
02:09 39.3 °F 36 °F 30.15 in North 2.3 mph 1.2 mph 88% 0 in WeatherDisplay:10.37 W/m2
02:14 39.4 °F 36.1 °F 30.15 in Calm     88% 0 in WeatherDisplay:10.37 W/m2
02:19 39.5 °F 36.2 °F 30.15 in Calm     88% 0 in WeatherDisplay:10.37 W/m2
02:24 39.5 °F 36.2 °F 30.15 in Calm     88% 0 in WeatherDisplay:10.37 W/m2
02:29 39.4 °F 35.9 °F 30.15 in Calm     87% 0 in WeatherDisplay:10.37 W/m2
02:34 39.4 °F 36.1 °F 30.15 in Calm     88% 0 in WeatherDisplay:10.37 W/m2
02:39 39.3 °F 36 °F 30.15 in Calm     88% 0 in WeatherDisplay:10.37 W/m2
02:44 39.2 °F 35.7 °F 30.15 in Calm     87% 0 in WeatherDisplay:10.37 W/m2
02:49 39.1 °F 35.8 °F 30.15 in Calm     88% 0 in WeatherDisplay:10.37 W/m2
02:54 38.9 °F 35.6 °F 30.15 in Calm     88% 0 in WeatherDisplay:10.37 W/m2
02:59 38.8 °F 35.6 °F 30.15 in Calm     88% 0 in WeatherDisplay:10.37 W/m2
03:04 38.7 °F 35.5 °F 30.15 in Calm     88% 0 in WeatherDisplay:10.37 W/m2
03:09 38.7 °F 35.5 °F 30.14 in Calm     88% 0 in WeatherDisplay:10.37 W/m2
03:14 38.5 °F 35.5 °F 30.14 in Calm     89% 0 in WeatherDisplay:10.37 W/m2
03:19 38.4 °F 35.4 °F 30.14 in Calm     89% 0 in WeatherDisplay:10.37 W/m2
03:24 38.2 °F 35 °F 30.15 in Calm     88% 0 in WeatherDisplay:10.37 W/m2
03:29 38 °F 35 °F 30.15 in Calm     89% 0 in WeatherDisplay:10.37 W/m2
03:34 38.2 °F 35.5 °F 30.16 in SE 5.8 mph 2.7 mph 90% 0 in WeatherDisplay:10.37 W/m2
03:39 38.9 °F 36.2 °F 30.17 in SE 2.3 mph 1.7 mph 90% 0 in WeatherDisplay:10.37 W/m2
03:44 39.3 °F 36.3 °F 30.17 in Calm     89% 0 in WeatherDisplay:10.37 W/m2
03:49 39.5 °F 36.5 °F 30.18 in Calm     89% 0 in WeatherDisplay:10.37 W/m2
03:54 39.5 °F 36.5 °F 30.18 in Calm     89% 0 in WeatherDisplay:10.37 W/m2
03:59 39.5 °F 36.5 °F 30.18 in Calm     89% 0 in WeatherDisplay:10.37 W/m2
04:04 39.6 °F 36.6 °F 30.18 in Calm     89% 0 in WeatherDisplay:10.37 W/m2
04:09 39.6 °F 36.6 °F 30.19 in Calm     89% 0 in WeatherDisplay:10.37 W/m2
04:14 39.5 °F 36.5 °F 30.19 in Calm     89% 0 in WeatherDisplay:10.37 W/m2
04:19 39.5 °F 36.2 °F 30.19 in Calm     88% 0 in WeatherDisplay:10.37 W/m2
04:24 39.5 °F 36.2 °F 30.19 in Calm     88% 0 in WeatherDisplay:10.37 W/m2
04:29 39.4 °F 36.4 °F 30.19 in Calm     89% 0 in WeatherDisplay:10.37 W/m2
04:34 39.5 °F 36.5 °F 30.19 in Calm     89% 0 in WeatherDisplay:10.37 W/m2
04:39 39.4 °F 36.4 °F 30.19 in Calm     89% 0 in WeatherDisplay:10.37 W/m2
04:44 39.2 °F 35.9 °F 30.19 in Calm     88% 0 in WeatherDisplay:10.37 W/m2
04:49 39 °F 35.7 °F 30.19 in Calm     88% 0 in WeatherDisplay:10.37 W/m2
04:54 38.8 °F 35.6 °F 30.20 in Calm     88% 0 in WeatherDisplay:10.37 W/m2
04:59 38.7 °F 35.7 °F 30.20 in Calm     89% 0 in WeatherDisplay:10.37 W/m2
05:04 38.5 °F 35.5 °F 30.20 in SE 2 mph 0.4 mph 89% 0 in WeatherDisplay:10.37 W/m2
05:09 38.2 °F 35.2 °F 30.20 in Calm     89% 0 in WeatherDisplay:10.37 W/m2
05:14 38.1 °F 35.1 °F 30.20 in SE 2 mph 0.9 mph 89% 0 in WeatherDisplay:10.37 W/m2
05:19 37.8 °F 35.1 °F 30.20 in SE 2.3 mph 1 mph 90% 0 in WeatherDisplay:10.37 W/m2
05:24 37.6 °F 34.9 °F 30.20 in SE 2.3 mph 0.8 mph 90% 0 in WeatherDisplay:10.37 W/m2
05:29 37.5 °F 34.8 °F 30.20 in Calm     90% 0 in WeatherDisplay:10.37 W/m2
05:34 37.3 °F 34.6 °F 30.20 in Calm     90% 0 in WeatherDisplay:10.37 W/m2
05:39 37.1 °F 34.4 °F 30.20 in Calm     90% 0 in WeatherDisplay:10.37 W/m2
05:44 37.2 °F 34.8 °F 30.20 in SE 2 mph 1.1 mph 91% 0 in WeatherDisplay:10.37 W/m2
05:49 37.6 °F 35.5 °F 30.20 in SE 3 mph 2.1 mph 92% 0 in WeatherDisplay:10.37 W/m2
05:54 37.9 °F 35.8 °F 30.20 in SSE 1.2 mph 1.3 mph 92% 0 in WeatherDisplay:10.37 W/m2
05:59 38.2 °F 36.1 °F 30.20 in SSE 4.6 mph 3.7 mph 92% 0 in WeatherDisplay:10.37 W/m2
06:04 38.3 °F 36.2 °F 30.20 in SE 5.8 mph 2.2 mph 92% 0 in WeatherDisplay:10.37 W/m2
06:09 38.4 °F 36.3 °F 30.21 in SSE 4.6 mph 2.7 mph 92% 0 in WeatherDisplay:10.37 W/m2
06:14 38.4 °F 36 °F 30.21 in SSE 6.9 mph 4.6 mph 91% 0 in WeatherDisplay:10.37 W/m2
06:19 38.3 °F 35.9 °F 30.21 in South 4 mph 2.4 mph 91% 0 in WeatherDisplay:10.37 W/m2
06:24 38.2 °F 35.8 °F 30.21 in SSE 3.5 mph 2.2 mph 91% 0 in WeatherDisplay:10.37 W/m2
06:29 38 °F 35.9 °F 30.21 in South 4.6 mph 4.6 mph 92% 0 in WeatherDisplay:10.37 W/m2
06:34 37.8 °F 35.4 °F 30.22 in SSE 4.6 mph 2.9 mph 91% 0 in WeatherDisplay:10.37 W/m2
06:39 37.7 °F 35.6 °F 30.22 in SSE 3.5 mph 2.6 mph 92% 0 in WeatherDisplay:10.37 W/m2
06:44 37.4 °F 35.3 °F 30.22 in SE 9.2 mph 6.8 mph 92% 0 in WeatherDisplay:10.37 W/m2
06:49 37.1 °F 35 °F 30.22 in SE 6.9 mph 3.4 mph 92% 0 in WeatherDisplay:10.37 W/m2
06:54 37 °F 34.9 °F 30.23 in SSE 6 mph 3.9 mph 92% 0 in WeatherDisplay:10.37 W/m2
06:59 36.7 °F 34.6 °F 30.23 in SSW 6.9 mph 5.8 mph 92% 0 in WeatherDisplay:10.37 W/m2
07:04 36.5 °F 34.4 °F 30.23 in SSE 5 mph 2.4 mph 92% 0 in WeatherDisplay:10.37 W/m2
07:09 36.4 °F 34.6 °F 30.23 in SSW 7 mph 4.2 mph 93% 0 in WeatherDisplay:10.37 W/m2
07:14 36.2 °F 34.4 °F 30.23 in South 6.9 mph 4.1 mph 93% 0 in WeatherDisplay:10.37 W/m2
07:19 36 °F 34.2 °F 30.23 in SSW 5 mph 3.9 mph 93% 0 in WeatherDisplay:10.37 W/m2
07:24 35.9 °F 34.3 °F 30.22 in South 5.8 mph 2.8 mph 94% 0 in WeatherDisplay:10.37 W/m2
07:29 35.9 °F 34.3 °F 30.22 in SSW 5 mph 2.7 mph 94% 0 in WeatherDisplay:10.37 W/m2
07:34 35.9 °F 34.3 °F 30.21 in SSW 5.8 mph 3 mph 94% 0 in WeatherDisplay:10.37 W/m2
07:39 35.9 °F 34.3 °F 30.22 in South 9.2 mph 6.3 mph 94% 0 in WeatherDisplay:10.37 W/m2
07:44 35.9 °F 34.3 °F 30.22 in SSW 3.5 mph 2 mph 94% 0 in WeatherDisplay:10.37 W/m2
07:49 35.9 °F 34.6 °F 30.22 in SSW 6.9 mph 4.8 mph 95% 0 in WeatherDisplay:10.37 W/m2
07:54 35.9 °F 34.6 °F 30.22 in SW 10.4 mph 5.6 mph 95% 0 in WeatherDisplay:10.37 W/m2
07:59 36 °F 34.7 °F 30.22 in WSW 3.5 mph 2.7 mph 95% 0 in WeatherDisplay:10.37 W/m2
08:04 36 °F 34.7 °F 30.23 in SSW 10.4 mph 3.9 mph 95% 0 in WeatherDisplay:10.37 W/m2
08:09 36.1 °F 34.8 °F 30.23 in SSW 4.6 mph 3.1 mph 95% 0 in WeatherDisplay:10.37 W/m2
08:14 36.1 °F 34.8 °F 30.23 in SW 5 mph 3.6 mph 95% 0 in WeatherDisplay:10.37 W/m2
08:19 36.1 °F 34.8 °F 30.23 in SSW 8.1 mph 5.8 mph 95% 0 in WeatherDisplay:10.37 W/m2
08:24 36.1 °F 34.8 °F 30.23 in SSW 10.4 mph 5.8 mph 95% 0 in WeatherDisplay:10.37 W/m2
08:29 36.2 °F 34.9 °F 30.23 in SW 3.5 mph 1.9 mph 95% 0 in WeatherDisplay:10.37 W/m2
08:34 36.2 °F 35.2 °F 30.23 in SW 4.6 mph 3.6 mph 96% 0 in WeatherDisplay:10.37 W/m2
08:39 36.2 °F 35.2 °F 30.24 in SW 6.9 mph 3.6 mph 96% 0 in WeatherDisplay:10.37 W/m2
08:44 36.2 °F 35.2 °F 30.23 in SSW 4.6 mph 2.7 mph 96% 0 in WeatherDisplay:10.37 W/m2
08:49 36.3 °F 35.3 °F 30.23 in South 4 mph 3.3 mph 96% 0 in WeatherDisplay:10.37 W/m2
08:54 36.3 °F 35.3 °F 30.23 in SSE 4 mph 4 mph 96% 0 in WeatherDisplay:10.37 W/m2
08:59 36.3 °F 35.3 °F 30.23 in SW 5.8 mph 4.6 mph 96% 0 in WeatherDisplay:10.37 W/m2
09:04 36.3 °F 35.3 °F 30.23 in SSE 5 mph 3.4 mph 96% 0 in WeatherDisplay:10.37 W/m2
09:09 36.3 °F 35.3 °F 30.23 in SSW 6.9 mph 3.5 mph 96% 0 in WeatherDisplay:10.37 W/m2
09:14 36.4 °F 35.4 °F 30.23 in South 5 mph 4.5 mph 96% 0 in WeatherDisplay:10.37 W/m2
09:19 36.4 °F 35.4 °F 30.22 in SSW 6.9 mph 5.6 mph 96% 0 in WeatherDisplay:10.37 W/m2
09:24 36.4 °F 35.4 °F 30.22 in SSE 10.4 mph 5.6 mph 96% 0 in WeatherDisplay:10.37 W/m2
09:29 36.4 °F 35.4 °F 30.22 in SSW 6.9 mph 4.8 mph 96% 0 in WeatherDisplay:10.37 W/m2
09:34 36.5 °F 35.5 °F 30.22 in South 9 mph 4.4 mph 96% 0 in WeatherDisplay:10.37 W/m2
09:39 36.5 °F 35.5 °F 30.22 in South 8.1 mph 4.1 mph 96% 0 in WeatherDisplay:10.37 W/m2
09:44 36.5 °F 35.5 °F 30.22 in SW 8.1 mph 3.5 mph 96% 0 in WeatherDisplay:10.37 W/m2
09:49 36.7 °F 35.7 °F 30.22 in South 8.1 mph 4.8 mph 96% 0 in WeatherDisplay:10.37 W/m2
09:54 36.8 °F 35.8 °F 30.23 in SSW 4.6 mph 4.6 mph 96% 0 in WeatherDisplay:10.37 W/m2
09:59 36.9 °F 35.9 °F 30.22 in SSW 4 mph 3 mph 96% 0 in WeatherDisplay:10.37 W/m2
10:04 37 °F 36 °F 30.23 in South 5.8 mph 4.6 mph 96% 0 in WeatherDisplay:10.37 W/m2
10:09 37.2 °F 36.2 °F 30.23 in SSW 7 mph 5 mph 96% 0 in WeatherDisplay:10.37 W/m2
10:14 37.3 °F 36.3 °F 30.22 in SW 6.9 mph 3.9 mph 96% 0 in WeatherDisplay:10.37 W/m2
10:19 37.4 °F 36.1 °F 30.22 in SSW 6.9 mph 5.6 mph 95% 0 in WeatherDisplay:10.37 W/m2
10:24 37.4 °F 36.1 °F 30.22 in SW 6.9 mph 4.1 mph 95% 0 in WeatherDisplay:10.37 W/m2
10:29 37.5 °F 36.2 °F 30.22 in SW 10 mph 6.2 mph 95% 0 in WeatherDisplay:10.37 W/m2
10:34 37.5 °F 35.9 °F 30.22 in SW 6.9 mph 4.3 mph 94% 0 in WeatherDisplay:10.37 W/m2
10:39 37.7 °F 36.1 °F 30.21 in South 8 mph 5.7 mph 94% 0 in WeatherDisplay:10.37 W/m2
10:44 37.8 °F 36 °F 30.21 in SW 5.8 mph 4.8 mph 93% 0 in WeatherDisplay:10.37 W/m2
10:49 38 °F 36.2 °F 30.20 in SSW 6.9 mph 4.5 mph 93% 0 in WeatherDisplay:10.37 W/m2
10:54 38.2 °F 36.1 °F 30.20 in South 9.2 mph 6.1 mph 92% 0 in WeatherDisplay:10.37 W/m2
10:59 38.2 °F 36.1 °F 30.20 in SSW 8 mph 5.5 mph 92% 0 in WeatherDisplay:10.37 W/m2
11:04 38.3 °F 35.9 °F 30.20 in South 9.2 mph 5.9 mph 91% 0 in WeatherDisplay:10.37 W/m2
11:09 38.4 °F 36 °F 30.20 in South 6.9 mph 4.8 mph 91% 0 in WeatherDisplay:10.37 W/m2
11:14 38.6 °F 35.9 °F 30.20 in SSW 6.9 mph 6.4 mph 90% 0 in WeatherDisplay:10.37 W/m2
11:19 38.7 °F 36 °F 30.20 in SW 5.8 mph 5.4 mph 90% 0 in WeatherDisplay:10.37 W/m2
11:24 38.9 °F 35.9 °F 30.20 in SSW 9.2 mph 4.7 mph 89% 0 in WeatherDisplay:10.37 W/m2
11:29 39 °F 36 °F 30.20 in SSE 6.9 mph 6.2 mph 89% 0 in WeatherDisplay:10.37 W/m2
11:34 39.1 °F 35.8 °F 30.20 in SSW 7 mph 3.6 mph 88% 0 in WeatherDisplay:10.37 W/m2
11:39 39.1 °F 35.8 °F 30.20 in SSW 8.1 mph 4.8 mph 88% 0 in WeatherDisplay:10.37 W/m2
11:44 39.3 °F 35.8 °F 30.19 in SSW 11.5 mph 6.3 mph 87% 0 in WeatherDisplay:10.37 W/m2
11:49 39.3 °F 35.8 °F 30.18 in SSE 9.2 mph 4.2 mph 87% 0 in WeatherDisplay:10.37 W/m2
11:54 39.3 °F 35.8 °F 30.18 in SSE 6.9 mph 6.7 mph 87% 0 in WeatherDisplay:10.37 W/m2
11:59 39.3 °F 35.5 °F 30.18 in SW 6.9 mph 6.8 mph 86% 0 in WeatherDisplay:10.37 W/m2
12:04 39.3 °F 35.5 °F 30.18 in South 9.2 mph 5.4 mph 86% 0 in WeatherDisplay:10.37 W/m2
12:09 39.4 °F 35.6 °F 30.18 in SSW 8.1 mph 3.6 mph 86% 0 in WeatherDisplay:10.37 W/m2
12:14 39.5 °F 35.7 °F 30.18 in South 6 mph 4.5 mph 86% 0 in WeatherDisplay:10.37 W/m2
12:19 39.5 °F 35.4 °F 30.18 in SSW 9.2 mph 6.2 mph 85% 0 in WeatherDisplay:10.37 W/m2
12:24 39.5 °F 35.4 °F 30.18 in SSW 7 mph 6 mph 85% 0 in WeatherDisplay:10.37 W/m2
12:29 39.5 °F 35.4 °F 30.17 in WSW 10 mph 6.3 mph 85% 0 in WeatherDisplay:10.37 W/m2
12:34 39.6 °F 35.5 °F 30.17 in SSW 6.9 mph 4.5 mph 85% 0 in WeatherDisplay:10.37 W/m2
12:39 39.7 °F 35.6 °F 30.17 in SW 9.2 mph 6.6 mph 85% 0 in WeatherDisplay:10.37 W/m2
12:44 39.7 °F 35.3 °F 30.17 in SE 8.1 mph 4.7 mph 84% 0 in WeatherDisplay:10.37 W/m2
12:49 39.6 °F 35.5 °F 30.17 in SSW 6.9 mph 5.5 mph 85% 0 in WeatherDisplay:10.37 W/m2
12:54 39.6 °F 35.5 °F 30.17 in SSE 8.1 mph 5.2 mph 85% 0 in WeatherDisplay:10.37 W/m2
12:59 39.5 °F 35.4 °F 30.17 in South 9.2 mph 6.5 mph 85% 0 in WeatherDisplay:10.37 W/m2
13:04 39.5 °F 35.4 °F 30.17 in SSW 8.1 mph 5.8 mph 85% 0 in WeatherDisplay:10.37 W/m2
13:09 39.5 °F 35.1 °F 30.17 in SW 10.4 mph 6.1 mph 84% 0 in WeatherDisplay:10.37 W/m2
13:14 39.4 °F 35 °F 30.17 in SSE 11.5 mph 6.9 mph 84% 0 in WeatherDisplay:10.37 W/m2
13:19 39.3 °F 34.9 °F 30.17 in SSW 11 mph 7.8 mph 84% 0 in WeatherDisplay:10.37 W/m2
west seneca weather
Compliments of Weather Underground - 2 mb